Time;durP1;ratioP1;P1;durP2;ratioP2;P2;SDS_P1;SDS_P2;PMS_P1;PMS_P2;Temp;Humidity;BMP_temperature;BMP_pressure;BME280_temperature;BME280_humidity;BME280_pressure;Samples;Min_cycle;Max_cycle;Signal;HPM_P1;HPM_P2
2021/05/31 00:00:37;;;;;;;;;;;8.50;99.90;;;;;;5054480;28;19925;-66
2021/05/31 00:03:05;;;;;;;;;;;8.50;99.90;;;;;;5055363;28;19972;-65
2021/05/31 00:05:33;;;;;;;;;;;8.40;99.90;;;;;;5055552;28;19932;-65
2021/05/31 00:08:01;;;;;;;;;;;8.40;99.90;;;;;;5055140;28;19935;-66
2021/05/31 00:10:29;;;;;;;;;;;8.40;99.90;;;;;;5055301;28;19924;-65
2021/05/31 00:12:58;;;;;;;;;;;8.30;99.90;;;;;;5055483;28;19924;-65
2021/05/31 00:15:27;;;;;;;;;;;8.20;99.90;;;;;;5054390;28;19932;-65
2021/05/31 00:17:55;;;;;;;;;;;8.20;99.90;;;;;;5055059;28;19975;-66
2021/05/31 00:20:23;;;;;;;;;;;8.20;99.90;;;;;;5055134;28;20265;-66
2021/05/31 00:22:51;;;;;;;;;;;8.20;99.90;;;;;;5055776;28;19924;-67
2021/05/31 00:25:19;;;;;;;;;;;8.20;99.90;;;;;;5054025;28;20015;-67
2021/05/31 00:30:41;;;;;;;;;;;8.00;99.90;;;;;;5052491;28;19925;-69
2021/05/31 00:33:09;;;;;;;;;;;7.90;99.90;;;;;;5055242;28;19925;-67
2021/05/31 00:35:37;;;;;;;;;;;7.80;99.90;;;;;;5055092;28;19979;-66
2021/05/31 00:38:05;;;;;;;;;;;7.60;99.90;;;;;;5055064;28;19933;-66
2021/05/31 00:40:35;;;;;;;;;;;7.60;99.90;;;;;;5054986;28;19925;-66
2021/05/31 00:43:03;;;;;;;;;;;7.50;99.90;;;;;;5053958;28;20023;-66
2021/05/31 00:45:31;;;;;;;;;;;7.50;99.90;;;;;;5052735;28;19925;-65
2021/05/31 00:47:59;;;;;;;;;;;7.50;99.90;;;;;;5055026;28;20350;-66
2021/05/31 00:50:27;;;;;;;;;;;7.40;99.90;;;;;;5054483;28;19983;-68
2021/05/31 00:55:47;;;;;;;;;;;7.40;99.90;;;;;;5053574;28;20376;-65
2021/05/31 00:58:16;;;;;;;;;;;7.30;99.90;;;;;;5054505;28;19936;-66
2021/05/31 01:00:44;;;;;;;;;;;7.30;99.90;;;;;;5053727;28;19929;-65
2021/05/31 01:03:13;;;;;;;;;;;7.20;99.90;;;;;;5054376;28;19929;-67
2021/05/31 01:05:41;;;;;;;;;;;7.20;99.90;;;;;;5053801;28;19925;-66
2021/05/31 01:08:10;;;;;;;;;;;7.20;99.90;;;;;;5054277;28;19924;-66
2021/05/31 01:10:41;;;;;;;;;;;7.20;99.90;;;;;;5053084;28;19928;-66
2021/05/31 01:13:13;;;;;;;;;;;7.10;99.90;;;;;;5054579;28;19951;-66
2021/05/31 01:15:42;;;;;;;;;;;7.10;99.90;;;;;;5035374;28;19924;-65
2021/05/31 01:18:11;;;;;;;;;;;7.00;99.90;;;;;;5053975;28;19925;-66
2021/05/31 01:20:57;;;;;;;;;;;7.00;99.90;;;;;;5052415;28;19928;-66
2021/05/31 01:23:28;;;;;;;;;;;6.90;99.90;;;;;;5026428;28;19925;-66
2021/05/31 01:26:00;;;;;;;;;;;6.90;99.90;;;;;;5052781;28;19932;-66
2021/05/31 01:28:46;;;;;;;;;;;6.90;99.90;;;;;;5054062;28;19931;-67
2021/05/31 01:31:17;;;;;;;;;;;6.80;99.90;;;;;;5053015;28;19924;-66
2021/05/31 01:33:47;;;;;;;;;;;6.70;99.90;;;;;;5054265;28;20002;-66
2021/05/31 01:36:14;;;;;;;;;;;6.60;99.90;;;;;;5052944;28;19924;-67
2021/05/31 01:38:43;;;;;;;;;;;6.50;99.90;;;;;;5053544;28;19931;-67
2021/05/31 01:41:12;;;;;;;;;;;6.50;99.90;;;;;;5053905;28;19931;-66
2021/05/31 01:43:44;;;;;;;;;;;6.50;99.90;;;;;;5054055;28;19925;-67
2021/05/31 01:46:13;;;;;;;;;;;6.50;99.90;;;;;;5052995;28;20403;-68
2021/05/31 01:48:43;;;;;;;;;;;6.50;99.90;;;;;;5053433;28;20392;-67
2021/05/31 01:51:13;;;;;;;;;;;6.50;99.90;;;;;;5053307;28;19931;-69
2021/05/31 01:53:42;;;;;;;;;;;6.50;99.90;;;;;;5053572;28;20020;-66
2021/05/31 01:56:10;;;;;;;;;;;6.40;99.90;;;;;;5053567;28;19932;-67
2021/05/31 01:58:39;;;;;;;;;;;6.30;99.90;;;;;;5054175;28;19931;-67
2021/05/31 02:01:08;;;;;;;;;;;6.30;99.90;;;;;;5035298;28;19940;-69
2021/05/31 02:03:37;;;;;;;;;;;6.20;99.90;;;;;;5053802;28;19974;-67
2021/05/31 02:06:09;;;;;;;;;;;6.10;99.90;;;;;;5053768;28;19924;-67
2021/05/31 02:08:37;;;;;;;;;;;6.10;99.90;;;;;;5053489;28;19971;-67
2021/05/31 02:11:10;;;;;;;;;;;6.10;99.90;;;;;;5053790;28;19928;-68
2021/05/31 02:13:40;;;;;;;;;;;6.00;99.90;;;;;;5053629;28;19929;-67
2021/05/31 02:16:11;;;;;;;;;;;5.90;99.90;;;;;;5053097;28;20327;-66
2021/05/31 02:18:41;;;;;;;;;;;5.90;99.90;;;;;;5056520;28;19952;-66
2021/05/31 02:21:12;;;;;;;;;;;5.80;99.90;;;;;;5056688;28;19925;-66
2021/05/31 02:23:42;;;;;;;;;;;5.80;99.90;;;;;;5056688;28;20263;-66
2021/05/31 02:26:12;;;;;;;;;;;5.80;99.90;;;;;;5040227;28;19932;-66
2021/05/31 02:28:40;;;;;;;;;;;5.70;99.90;;;;;;5058979;28;19925;-66
2021/05/31 02:31:08;;;;;;;;;;;5.80;99.90;;;;;;5058612;28;20128;-66
2021/05/31 02:33:36;;;;;;;;;;;5.80;99.90;;;;;;5058346;28;20248;-68
2021/05/31 02:36:04;;;;;;;;;;;5.90;99.90;;;;;;5058599;28;19931;-67
2021/05/31 02:38:38;;;;;;;;;;;5.90;99.90;;;;;;5058431;28;19970;-66
2021/05/31 02:41:08;;;;;;;;;;;5.80;99.90;;;;;;5039722;28;20430;-67
2021/05/31 02:43:36;;;;;;;;;;;5.80;99.90;;;;;;5057879;28;20369;-67
2021/05/31 02:46:03;;;;;;;;;;;5.80;99.90;;;;;;5057750;28;19998;-66
2021/05/31 02:48:31;;;;;;;;;;;5.80;99.90;;;;;;5056853;28;20026;-67
2021/05/31 02:50:58;;;;;;;;;;;5.80;99.90;;;;;;5057241;28;19947;-66
2021/05/31 02:53:26;;;;;;;;;;;5.80;99.90;;;;;;5056969;28;19925;-67
2021/05/31 02:55:55;;;;;;;;;;;5.80;99.90;;;;;;5056988;28;19935;-66
2021/05/31 02:58:23;;;;;;;;;;;5.80;99.90;;;;;;5056745;28;19932;-67
2021/05/31 03:00:51;;;;;;;;;;;5.70;99.90;;;;;;5054294;28;20358;-66
2021/05/31 03:03:19;;;;;;;;;;;5.70;99.90;;;;;;5056645;28;19931;-67
2021/05/31 03:05:47;;;;;;;;;;;5.60;99.90;;;;;;5056070;28;19937;-67
2021/05/31 03:08:15;;;;;;;;;;;5.60;99.90;;;;;;5056565;28;19925;-67
2021/05/31 03:10:44;;;;;;;;;;;5.60;99.90;;;;;;5056885;28;19924;-67
2021/05/31 03:13:13;;;;;;;;;;;5.60;99.90;;;;;;5057010;28;19929;-67
2021/05/31 03:15:42;;;;;;;;;;;5.70;99.90;;;;;;5037939;28;19925;-67
2021/05/31 03:18:09;;;;;;;;;;;5.60;99.90;;;;;;5056326;28;20416;-67
2021/05/31 03:20:37;;;;;;;;;;;5.60;99.90;;;;;;5056414;28;20300;-67
2021/05/31 03:23:05;;;;;;;;;;;5.60;99.90;;;;;;5056466;28;19932;-67
2021/05/31 03:25:32;;;;;;;;;;;5.70;99.90;;;;;;5056054;28;20043;-67
2021/05/31 03:28:00;;;;;;;;;;;5.70;99.90;;;;;;5056243;28;19925;-67
2021/05/31 03:30:29;;;;;;;;;;;5.80;99.90;;;;;;5054111;28;19925;-67
2021/05/31 03:32:57;;;;;;;;;;;5.80;99.90;;;;;;5056346;28;20441;-67
2021/05/31 03:35:25;;;;;;;;;;;5.80;99.90;;;;;;5056181;28;19929;-67
2021/05/31 03:37:53;;;;;;;;;;;5.80;99.90;;;;;;5038031;28;19929;-67
2021/05/31 03:40:22;;;;;;;;;;;5.80;99.90;;;;;;5056440;28;20287;-67
2021/05/31 03:42:50;;;;;;;;;;;5.80;99.90;;;;;;5055918;28;19955;-67
2021/05/31 03:45:18;;;;;;;;;;;5.80;99.90;;;;;;5054725;28;19929;-67
2021/05/31 03:47:47;;;;;;;;;;;5.80;99.90;;;;;;5056111;28;19925;-68
2021/05/31 03:50:16;;;;;;;;;;;5.90;99.90;;;;;;5055938;28;20342;-66
2021/05/31 03:52:46;;;;;;;;;;;5.80;99.90;;;;;;5054972;28;20371;-66
2021/05/31 03:55:13;;;;;;;;;;;5.80;99.90;;;;;;5055971;28;19975;-67
2021/05/31 03:57:42;;;;;;;;;;;5.80;99.90;;;;;;5055016;28;20031;-66
2021/05/31 04:00:11;;;;;;;;;;;5.80;99.90;;;;;;5055575;28;20426;-66
2021/05/31 04:05:34;;;;;;;;;;;6.00;99.90;;;;;;5055479;28;19987;-66
2021/05/31 04:14:09;;;;;;;;;;;6.30;99.90;;;;;;5013811;28;19932;-66
2021/05/31 04:16:39;;;;;;;;;;;6.30;99.90;;;;;;5052608;28;19974;-68
2021/05/31 04:19:07;;;;;;;;;;;6.30;99.90;;;;;;5066783;28;19979;-67
2021/05/31 04:21:38;;;;;;;;;;;6.40;99.90;;;;;;5066066;28;19925;-66
2021/05/31 04:24:06;;;;;;;;;;;6.50;99.90;;;;;;5055450;28;19979;-66
2021/05/31 04:26:35;;;;;;;;;;;6.50;99.90;;;;;;5055333;28;19978;-66
2021/05/31 04:29:04;;;;;;;;;;;6.70;99.90;;;;;;5054735;28;19932;-66
2021/05/31 04:31:32;;;;;;;;;;;6.90;99.90;;;;;;5054384;28;19931;-66
2021/05/31 04:34:00;;;;;;;;;;;7.00;99.90;;;;;;5055539;28;19925;-69
2021/05/31 04:36:28;;;;;;;;;;;7.10;99.90;;;;;;5055155;28;19952;-67
2021/05/31 04:38:59;;;;;;;;;;;7.20;99.90;;;;;;5055223;28;19925;-67
2021/05/31 04:41:27;;;;;;;;;;;7.30;99.90;;;;;;5054662;28;20013;-66
2021/05/31 04:43:54;;;;;;;;;;;7.40;99.90;;;;;;5055198;28;19925;-66
2021/05/31 04:46:22;;;;;;;;;;;7.60;99.90;;;;;;5054034;28;20354;-67
2021/05/31 04:48:50;;;;;;;;;;;7.70;99.90;;;;;;5053465;28;20032;-67
2021/05/31 04:51:18;;;;;;;;;;;7.90;99.90;;;;;;5055060;28;19975;-67
2021/05/31 04:53:45;;;;;;;;;;;8.00;99.90;;;;;;5054654;28;19931;-66
2021/05/31 04:56:17;;;;;;;;;;;8.20;99.90;;;;;;5060249;28;19925;-67
2021/05/31 04:58:46;;;;;;;;;;;8.40;99.90;;;;;;5054732;28;20380;-66
2021/05/31 05:01:14;;;;;;;;;;;8.40;99.90;;;;;;5053896;28;19925;-66
2021/05/31 05:03:41;;;;;;;;;;;8.60;99.90;;;;;;5054603;28;19925;-66
2021/05/31 05:06:11;;;;;;;;;;;8.70;99.90;;;;;;5054671;28;20354;-67
2021/05/31 05:08:39;;;;;;;;;;;8.80;99.90;;;;;;5054631;28;19929;-67
2021/05/31 05:11:06;;;;;;;;;;;9.00;99.90;;;;;;5054188;28;20349;-67
2021/05/31 05:13:36;;;;;;;;;;;9.10;99.90;;;;;;5054187;28;20081;-66
2021/05/31 05:16:05;;;;;;;;;;;9.20;99.90;;;;;;5053020;28;19925;-69
2021/05/31 05:18:33;;;;;;;;;;;9.40;99.90;;;;;;5035683;28;19975;-67
2021/05/31 05:21:00;;;;;;;;;;;9.60;99.90;;;;;;5053843;28;20373;-68
2021/05/31 05:23:28;;;;;;;;;;;9.90;99.90;;;;;;5054134;28;19929;-69
2021/05/31 05:25:58;;;;;;;;;;;10.00;99.90;;;;;;5054317;28;20020;-66
2021/05/31 05:28:26;;;;;;;;;;;10.00;99.90;;;;;;5054224;28;19947;-69
2021/05/31 05:30:55;;;;;;;;;;;10.20;99.90;;;;;;5053375;28;20442;-70
2021/05/31 05:33:23;;;;;;;;;;;10.40;99.90;;;;;;5054342;28;19985;-66
2021/05/31 05:35:54;;;;;;;;;;;10.50;99.90;;;;;;5053625;28;19924;-66
2021/05/31 05:38:37;;;;;;;;;;;10.80;99.90;;;;;;5054152;28;19925;-66
2021/05/31 05:41:22;;;;;;;;;;;10.90;99.90;;;;;;5053167;28;20384;-67
2021/05/31 05:46:48;;;;;;;;;;;10.90;99.90;;;;;;5029165;28;19948;-69
2021/05/31 05:49:16;;;;;;;;;;;11.20;99.90;;;;;;5054196;28;20265;-66
2021/05/31 05:51:43;;;;;;;;;;;11.50;99.90;;;;;;5053974;28;19925;-66
2021/05/31 05:54:12;;;;;;;;;;;11.70;99.90;;;;;;5058150;28;20052;-66
2021/05/31 05:56:39;;;;;;;;;;;11.90;99.90;;;;;;5058655;28;19924;-66
2021/05/31 05:59:07;;;;;;;;;;;11.80;99.90;;;;;;5058708;28;19925;-65
2021/05/31 06:01:39;;;;;;;;;;;12.00;99.90;;;;;;5040211;28;20024;-69
2021/05/31 06:04:09;;;;;;;;;;;12.20;99.90;;;;;;5057003;28;20010;-67
2021/05/31 06:06:37;;;;;;;;;;;12.40;99.90;;;;;;5058261;28;19931;-67
2021/05/31 06:09:06;;;;;;;;;;;12.50;99.90;;;;;;5057867;28;19971;-65
2021/05/31 06:11:36;;;;;;;;;;;12.50;99.90;;;;;;5058560;28;19928;-67
2021/05/31 06:14:04;;;;;;;;;;;12.40;99.90;;;;;;5058190;28;19925;-66
2021/05/31 06:16:31;;;;;;;;;;;12.50;99.90;;;;;;5057415;28;19970;-67
2021/05/31 06:18:59;;;;;;;;;;;12.60;99.90;;;;;;5058566;28;19982;-66
2021/05/31 06:21:28;;;;;;;;;;;12.70;99.90;;;;;;5057933;28;19925;-67
2021/05/31 06:23:59;;;;;;;;;;;12.80;99.90;;;;;;5056440;28;19925;-66
2021/05/31 06:26:26;;;;;;;;;;;12.90;99.90;;;;;;5056754;28;19925;-66
2021/05/31 06:28:54;;;;;;;;;;;12.90;99.90;;;;;;5058997;28;19971;-66
2021/05/31 06:31:22;;;;;;;;;;;13.00;99.90;;;;;;5057583;28;19925;-66
2021/05/31 06:33:49;;;;;;;;;;;13.00;99.90;;;;;;5058561;28;20017;-65
2021/05/31 06:36:17;;;;;;;;;;;13.40;99.90;;;;;;5058344;28;19931;-67
2021/05/31 06:38:46;;;;;;;;;;;14.00;99.90;;;;;;5057962;28;19947;-66
2021/05/31 06:41:15;;;;;;;;;;;14.70;99.90;;;;;;5059347;28;20062;-67
2021/05/31 06:43:43;;;;;;;;;;;15.00;99.20;;;;;;5059330;28;19961;-67
2021/05/31 06:46:11;;;;;;;;;;;15.80;99.00;;;;;;5055749;28;19970;-67
2021/05/31 06:48:38;;;;;;;;;;;16.30;97.00;;;;;;5058047;28;20251;-68
2021/05/31 06:51:07;;;;;;;;;;;17.00;94.70;;;;;;5059075;28;19925;-66
2021/05/31 06:53:35;;;;;;;;;;;18.30;92.40;;;;;;5058273;28;19925;-66
2021/05/31 06:56:05;;;;;;;;;;;18.00;88.70;;;;;;5057700;28;19947;-66
2021/05/31 06:58:32;;;;;;;;;;;18.40;88.50;;;;;;5057764;28;20062;-67
2021/05/31 07:01:00;;;;;;;;;;;18.90;82.30;;;;;;5057261;28;20436;-65
2021/05/31 07:03:28;;;;;;;;;;;18.20;80.60;;;;;;5039535;28;20315;-67
2021/05/31 07:05:56;;;;;;;;;;;18.90;81.60;;;;;;5057422;28;20023;-67
2021/05/31 07:08:48;;;;;;;;;;;18.60;78.40;;;;;;5057306;28;19975;-66
2021/05/31 07:14:12;;;;;;;;;;;20.60;74.80;;;;;;5057364;28;20019;-68
2021/05/31 07:16:40;;;;;;;;;;;20.00;70.50;;;;;;5056862;28;19929;-67
2021/05/31 07:19:08;;;;;;;;;;;21.00;67.80;;;;;;5057784;28;19925;-67
2021/05/31 07:21:35;;;;;;;;;;;19.60;68.60;;;;;;5058892;28;19925;-67
2021/05/31 07:24:05;;;;;;;;;;;20.20;68.90;;;;;;5057135;28;20337;-66
2021/05/31 07:26:34;;;;;;;;;;;20.20;68.90;;;;;;5058732;28;20377;-69
2021/05/31 07:29:02;;;;;;;;;;;20.80;65.10;;;;;;5057687;28;19928;-68
2021/05/31 07:31:30;;;;;;;;;;;20.30;64.40;;;;;;5054716;28;19932;-67
2021/05/31 07:33:58;;;;;;;;;;;22.00;64.40;;;;;;5056555;28;19925;-67
2021/05/31 07:36:26;;;;;;;;;;;22.20;60.50;;;;;;5056484;28;20399;-67
2021/05/31 07:38:54;;;;;;;;;;;21.40;60.80;;;;;;5056102;28;20402;-67
2021/05/31 07:41:24;;;;;;;;;;;21.40;60.20;;;;;;5056208;28;19956;-67
2021/05/31 07:43:53;;;;;;;;;;;19.30;63.10;;;;;;5055612;28;20296;-66
2021/05/31 07:46:21;;;;;;;;;;;20.10;66.50;;;;;;5055614;28;20316;-67
2021/05/31 07:48:50;;;;;;;;;;;21.70;62.50;;;;;;5056119;28;19929;-67
2021/05/31 07:51:18;;;;;;;;;;;23.30;56.80;;;;;;5054720;28;19931;-66
2021/05/31 07:53:47;;;;;;;;;;;23.20;55.70;;;;;;5056051;28;19964;-67
2021/05/31 07:56:15;;;;;;;;;;;22.80;52.50;;;;;;5055329;28;20357;-68
2021/05/31 07:58:44;;;;;;;;;;;21.40;55.20;;;;;;5054550;28;19929;-70
2021/05/31 08:01:13;;;;;;;;;;;22.00;59.30;;;;;;5054998;28;19940;-67
2021/05/31 08:03:42;;;;;;;;;;;23.10;58.50;;;;;;5055641;28;19924;-68
2021/05/31 08:06:10;;;;;;;;;;;25.70;53.70;;;;;;5054345;28;19928;-67
2021/05/31 08:08:38;;;;;;;;;;;24.80;50.20;;;;;;5055773;28;20031;-67
2021/05/31 08:11:06;;;;;;;;;;;22.90;54.50;;;;;;5055786;28;19925;-68
2021/05/31 08:13:35;;;;;;;;;;;22.30;58.40;;;;;;5055703;28;20333;-68
2021/05/31 08:16:03;;;;;;;;;;;20.20;60.20;;;;;;5054563;28;19929;-67
2021/05/31 08:18:32;;;;;;;;;;;19.50;64.50;;;;;;5054221;28;19974;-67
2021/05/31 08:21:00;;;;;;;;;;;20.90;64.00;;;;;;5055880;28;19925;-68
2021/05/31 08:23:28;;;;;;;;;;;24.20;55.80;;;;;;5055391;28;19948;-67
2021/05/31 08:25:55;;;;;;;;;;;25.70;51.70;;;;;;5055505;28;20300;-68
2021/05/31 08:28:23;;;;;;;;;;;23.90;53.60;;;;;;5055706;28;19925;-67
2021/05/31 08:30:51;;;;;;;;;;;23.90;52.40;;;;;;5053565;28;20320;-69
2021/05/31 08:33:19;;;;;;;;;;;23.70;52.30;;;;;;5056060;28;20350;-67
2021/05/31 08:35:48;;;;;;;;;;;23.50;49.70;;;;;;5055251;28;19932;-67
2021/05/31 08:38:41;;;;;;;;;;;25.30;49.40;;;;;;5037804;28;19955;-67
2021/05/31 08:41:09;;;;;;;;;;;24.30;46.50;;;;;;5055542;28;19929;-68
2021/05/31 08:43:37;;;;;;;;;;;23.80;48.60;;;;;;5053691;28;19931;-67
2021/05/31 08:46:05;;;;;;;;;;;24.50;47.50;;;;;;5054598;28;19925;-68
2021/05/31 08:48:33;;;;;;;;;;;22.70;47.40;;;;;;5054613;28;19925;-68
2021/05/31 08:51:26;;;;;;;;;;;24.50;48.70;;;;;;5053772;28;19925;-68
2021/05/31 08:54:00;;;;;;;;;;;26.00;45.30;;;;;;5060130;28;20304;-70
2021/05/31 08:56:28;;;;;;;;;;;21.40;48.60;;;;;;5056745;28;20286;-70
2021/05/31 08:58:56;;;;;;;;;;;20.50;53.90;;;;;;5055299;28;20363;-67
2021/05/31 09:01:26;;;;;;;;;;;22.30;53.80;;;;;;5054098;28;19963;-67
2021/05/31 09:03:55;;;;;;;;;;;22.80;48.30;;;;;;5055064;28;19925;-70
2021/05/31 09:12:48;;;;;;;;;;;23.00;47.60;;;;;;5054538;28;19964;-70
2021/05/31 09:15:16;;;;;;;;;;;25.00;45.00;;;;;;5053966;28;19925;-68
2021/05/31 09:17:43;;;;;;;;;;;24.80;43.20;;;;;;5055038;28;19932;-71
2021/05/31 09:20:11;;;;;;;;;;;26.30;42.30;;;;;;5055295;28;20016;-67
2021/05/31 09:22:46;;;;;;;;;;;28.50;39.20;;;;;;5054142;28;19925;-68
2021/05/31 09:25:24;;;;;;;;;;;26.00;39.30;;;;;;5054910;28;19929;-68
2021/05/31 09:27:59;;;;;;;;;;;22.60;44.30;;;;;;5054150;28;19971;-67
2021/05/31 09:30:48;;;;;;;;;;;21.70;46.70;;;;;;5054233;28;19931;-70
2021/05/31 09:33:16;;;;;;;;;;;22.20;48.00;;;;;;5050499;28;20359;-66
2021/05/31 09:35:45;;;;;;;;;;;22.40;49.10;;;;;;5053120;28;20348;-69
2021/05/31 09:38:14;;;;;;;;;;;21.40;49.90;;;;;;5054480;28;19929;-67
2021/05/31 09:40:51;;;;;;;;;;;21.30;50.70;;;;;;5054822;28;19974;-67
2021/05/31 09:43:21;;;;;;;;;;;20.80;52.00;;;;;;5054523;28;20000;-68
2021/05/31 09:45:52;;;;;;;;;;;20.20;49.90;;;;;;5053755;28;19928;-70
2021/05/31 09:48:20;;;;;;;;;;;19.60;52.00;;;;;;5055294;28;20001;-68
2021/05/31 09:50:57;;;;;;;;;;;19.90;51.20;;;;;;5054780;28;19925;-67
2021/05/31 09:53:34;;;;;;;;;;;19.40;52.50;;;;;;5055832;28;19928;-66
2021/05/31 09:56:13;;;;;;;;;;;19.00;53.40;;;;;;5054624;28;19929;-67
2021/05/31 09:58:50;;;;;;;;;;;19.50;54.60;;;;;;5054314;28;19936;-65
2021/05/31 10:01:37;;;;;;;;;;;20.00;53.60;;;;;;5056503;28;20249;-69
2021/05/31 10:04:18;;;;;;;;;;;20.80;54.40;;;;;;5056263;28;19971;-70
2021/05/31 10:06:49;;;;;;;;;;;20.00;52.20;;;;;;5055383;28;19931;-70
2021/05/31 10:09:17;;;;;;;;;;;19.90;52.20;;;;;;5055669;28;19924;-68
2021/05/31 10:11:47;;;;;;;;;;;19.40;53.20;;;;;;5056489;28;19978;-71
2021/05/31 10:14:15;;;;;;;;;;;19.60;53.20;;;;;;5056475;28;19925;-70
2021/05/31 10:16:44;;;;;;;;;;;20.10;53.50;;;;;;5053384;28;19946;-69
2021/05/31 10:19:12;;;;;;;;;;;20.80;51.80;;;;;;5036798;28;20292;-71
2021/05/31 10:21:40;;;;;;;;;;;22.20;51.20;;;;;;5053880;28;20031;-72
2021/05/31 10:24:08;;;;;;;;;;;23.00;46.40;;;;;;5052151;28;20394;-70
2021/05/31 10:26:36;;;;;;;;;;;21.30;49.20;;;;;;5053213;28;19975;-69
2021/05/31 10:29:06;;;;;;;;;;;20.00;49.80;;;;;;5056122;28;19924;-69
2021/05/31 10:31:41;;;;;;;;;;;21.40;49.80;;;;;;5056555;28;20000;-71
2021/05/31 10:34:17;;;;;;;;;;;25.40;44.20;;;;;;5055125;28;20420;-71
2021/05/31 10:36:49;;;;;;;;;;;23.40;42.60;;;;;;5053710;28;19960;-69
2021/05/31 10:39:21;;;;;;;;;;;22.20;46.70;;;;;;5056122;28;19933;-72
2021/05/31 10:41:50;;;;;;;;;;;21.60;48.70;;;;;;5058626;28;20300;-69
2021/05/31 10:44:19;;;;;;;;;;;21.30;49.10;;;;;;5058489;28;20402;-69
2021/05/31 10:46:47;;;;;;;;;;;20.60;48.80;;;;;;5056999;28;20288;-70
2021/05/31 10:49:19;;;;;;;;;;;20.00;49.90;;;;;;5058813;28;19931;-70
2021/05/31 10:51:47;;;;;;;;;;;19.70;52.40;;;;;;5058605;28;19924;-70
2021/05/31 10:54:18;;;;;;;;;;;19.60;52.90;;;;;;5059963;28;19925;-72
2021/05/31 10:56:47;;;;;;;;;;;19.30;54.00;;;;;;5058627;28;20353;-69
2021/05/31 10:59:20;;;;;;;;;;;19.30;52.30;;;;;;5059650;28;20058;-69
2021/05/31 11:01:48;;;;;;;;;;;20.00;53.10;;;;;;5058744;28;19925;-69
2021/05/31 11:04:22;;;;;;;;;;;20.00;51.90;;;;;;5041129;28;19931;-70
2021/05/31 11:06:51;;;;;;;;;;;19.80;52.00;;;;;;5057889;28;19925;-69
2021/05/31 11:09:20;;;;;;;;;;;20.30;52.30;;;;;;5056790;28;20012;-69
2021/05/31 11:11:50;;;;;;;;;;;20.20;52.40;;;;;;5057314;28;19931;-70
2021/05/31 11:14:29;;;;;;;;;;;20.00;51.20;;;;;;5056367;28;20023;-69
2021/05/31 11:16:58;;;;;;;;;;;20.80;50.10;;;;;;5057076;28;20065;-70
2021/05/31 11:19:34;;;;;;;;;;;21.00;51.80;;;;;;5059670;28;19955;-70
2021/05/31 11:22:12;;;;;;;;;;;20.90;50.60;;;;;;5059651;28;19929;-69
2021/05/31 11:24:40;;;;;;;;;;;20.30;50.50;;;;;;5064151;28;19925;-70
2021/05/31 11:27:08;;;;;;;;;;;21.10;52.30;;;;;;5065865;28;19947;-69
2021/05/31 11:29:37;;;;;;;;;;;21.30;52.30;;;;;;5067307;28;19968;-70
2021/05/31 11:32:30;;;;;;;;;;;20.30;51.50;;;;;;5063081;28;20294;-69
2021/05/31 11:35:27;;;;;;;;;;;20.00;53.80;;;;;;5059722;28;19925;-70
2021/05/31 11:38:04;;;;;;;;;;;19.20;55.30;;;;;;5061005;28;20375;-71
2021/05/31 11:40:33;;;;;;;;;;;19.70;56.40;;;;;;5061547;28;19924;-70
2021/05/31 11:43:03;;;;;;;;;;;19.50;56.60;;;;;;5063008;28;19959;-70
2021/05/31 11:45:39;;;;;;;;;;;18.90;57.30;;;;;;5066613;28;19925;-69
2021/05/31 11:48:08;;;;;;;;;;;18.40;57.70;;;;;;5064599;28;19974;-70
2021/05/31 11:50:36;;;;;;;;;;;18.30;59.00;;;;;;5063406;28;19925;-70
2021/05/31 11:55:57;;;;;;;;;;;18.70;57.40;;;;;;5067144;28;19935;-69
2021/05/31 11:58:24;;;;;;;;;;;18.80;57.10;;;;;;5063939;28;19924;-69
2021/05/31 12:00:54;;;;;;;;;;;19.20;57.60;;;;;;5054733;28;19925;-68
2021/05/31 12:03:23;;;;;;;;;;;19.50;57.50;;;;;;5056537;28;20399;-70
2021/05/31 12:05:54;;;;;;;;;;;18.90;57.70;;;;;;5056501;28;19925;-71
2021/05/31 12:08:23;;;;;;;;;;;18.70;57.20;;;;;;5059760;28;19975;-68
2021/05/31 12:10:51;;;;;;;;;;;19.10;57.30;;;;;;5057109;28;19998;-68
2021/05/31 12:13:44;;;;;;;;;;;19.30;56.80;;;;;;5057120;28;19932;-69
2021/05/31 12:16:37;;;;;;;;;;;19.70;56.50;;;;;;5053492;28;20007;-69
2021/05/31 12:19:14;;;;;;;;;;;20.00;56.40;;;;;;5056145;28;19975;-69
2021/05/31 12:21:42;;;;;;;;;;;19.40;55.80;;;;;;5055913;28;19947;-68
2021/05/31 12:24:10;;;;;;;;;;;19.40;57.20;;;;;;5054116;28;19925;-69
2021/05/31 12:26:38;;;;;;;;;;;19.50;56.80;;;;;;5060406;28;20311;-69
2021/05/31 12:29:16;;;;;;;;;;;19.50;57.50;;;;;;5055328;28;20024;-70
2021/05/31 12:32:17;;;;;;;;;;;19.30;56.50;;;;;;5054695;28;19959;-69
2021/05/31 12:34:46;;;;;;;;;;;19.30;57.20;;;;;;5055505;28;20339;-69
2021/05/31 12:37:14;;;;;;;;;;;19.90;58.00;;;;;;5054804;28;20448;-69
2021/05/31 12:39:48;;;;;;;;;;;20.10;58.50;;;;;;5059298;28;19925;-70
2021/05/31 12:42:20;;;;;;;;;;;19.30;57.10;;;;;;5055519;28;19929;-70
2021/05/31 12:44:50;;;;;;;;;;;19.10;57.60;;;;;;5055322;28;19924;-70
2021/05/31 12:47:20;;;;;;;;;;;19.20;59.20;;;;;;5054365;28;19924;-69
2021/05/31 12:49:50;;;;;;;;;;;19.80;57.80;;;;;;5055549;28;20337;-69
2021/05/31 12:52:23;;;;;;;;;;;20.00;55.60;;;;;;5059075;28;19925;-70
2021/05/31 12:54:58;;;;;;;;;;;20.00;55.70;;;;;;5055669;28;19978;-70
2021/05/31 12:57:51;;;;;;;;;;;19.30;55.50;;;;;;5054614;28;20303;-72
2021/05/31 13:00:20;;;;;;;;;;;18.90;56.30;;;;;;5054707;28;19932;-70
2021/05/31 13:02:51;;;;;;;;;;;18.90;57.10;;;;;;5036635;28;19932;-70
2021/05/31 13:05:22;;;;;;;;;;;19.20;57.80;;;;;;5054677;28;19925;-69
2021/05/31 13:08:07;;;;;;;;;;;19.00;57.70;;;;;;5051723;28;19921;-70
2021/05/31 13:10:43;;;;;;;;;;;19.10;58.30;;;;;;5038159;28;19924;-70
2021/05/31 13:13:12;;;;;;;;;;;19.30;58.30;;;;;;5054783;28;19925;-70
2021/05/31 13:15:41;;;;;;;;;;;19.60;58.30;;;;;;5052713;28;19936;-70
2021/05/31 13:18:13;;;;;;;;;;;19.30;57.30;;;;;;5053823;28;19925;-70
2021/05/31 13:20:41;;;;;;;;;;;19.50;58.10;;;;;;5033097;28;19931;-67
2021/05/31 13:23:12;;;;;;;;;;;19.60;57.20;;;;;;5034744;28;19959;-69
2021/05/31 13:25:44;;;;;;;;;;;19.70;56.80;;;;;;5034272;28;20373;-70
2021/05/31 13:28:13;;;;;;;;;;;19.80;56.40;;;;;;5033835;28;19957;-69
2021/05/31 13:30:41;;;;;;;;;;;19.70;55.50;;;;;;5032597;28;20004;-69
2021/05/31 13:33:10;;;;;;;;;;;19.70;55.20;;;;;;5034001;28;19979;-70
2021/05/31 13:35:41;;;;;;;;;;;19.60;56.10;;;;;;5034629;28;19931;-69
2021/05/31 13:38:09;;;;;;;;;;;19.30;56.50;;;;;;5033439;28;19925;-70
2021/05/31 13:40:38;;;;;;;;;;;19.50;56.80;;;;;;5034627;28;19925;-71
2021/05/31 13:43:08;;;;;;;;;;;19.90;57.40;;;;;;5034393;28;19964;-70
2021/05/31 13:45:36;;;;;;;;;;;20.00;57.30;;;;;;5032945;28;19925;-70
2021/05/31 13:48:05;;;;;;;;;;;19.70;56.00;;;;;;5035048;28;19925;-72
2021/05/31 13:50:33;;;;;;;;;;;19.60;56.90;;;;;;5034828;28;20336;-70
2021/05/31 13:53:02;;;;;;;;;;;19.80;56.00;;;;;;5034617;28;19925;-71
2021/05/31 13:55:35;;;;;;;;;;;20.00;54.80;;;;;;5034556;28;20392;-70
2021/05/31 13:58:04;;;;;;;;;;;19.60;53.00;;;;;;5034084;28;19933;-72
2021/05/31 14:00:32;;;;;;;;;;;19.50;53.90;;;;;;5033265;28;20432;-71
2021/05/31 14:03:00;;;;;;;;;;;19.30;53.50;;;;;;5033634;28;20125;-71
2021/05/31 14:05:29;;;;;;;;;;;19.70;54.90;;;;;;5033826;28;19925;-69
2021/05/31 14:07:57;;;;;;;;;;;19.90;54.60;;;;;;5034423;28;20031;-69
2021/05/31 14:10:26;;;;;;;;;;;19.80;54.70;;;;;;5034026;28;19998;-69
2021/05/31 14:12:55;;;;;;;;;;;19.70;53.90;;;;;;5034295;28;19929;-69
2021/05/31 14:15:23;;;;;;;;;;;19.70;53.30;;;;;;5036782;28;19933;-69
2021/05/31 14:17:52;;;;;;;;;;;19.70;54.20;;;;;;5037714;28;19925;-69
2021/05/31 14:20:20;;;;;;;;;;;20.30;56.40;;;;;;5057002;28;19929;-69
2021/05/31 14:22:49;;;;;;;;;;;20.40;55.00;;;;;;5041465;28;19929;-69
2021/05/31 14:25:17;;;;;;;;;;;20.00;55.20;;;;;;5060312;28;19925;-69
2021/05/31 14:27:46;;;;;;;;;;;20.00;56.20;;;;;;5059909;28;19929;-69
2021/05/31 14:30:39;;;;;;;;;;;19.50;55.30;;;;;;5056477;28;19963;-71
2021/05/31 14:33:06;;;;;;;;;;;19.40;56.80;;;;;;5057583;28;20023;-69
2021/05/31 14:35:35;;;;;;;;;;;19.40;57.60;;;;;;5058373;28;19963;-70
2021/05/31 14:38:04;;;;;;;;;;;19.50;55.90;;;;;;5057736;28;20020;-69
2021/05/31 14:40:32;;;;;;;;;;;19.80;54.50;;;;;;5058351;28;19925;-69
2021/05/31 14:43:01;;;;;;;;;;;19.80;54.60;;;;;;5057334;28;19925;-69
2021/05/31 14:45:29;;;;;;;;;;;19.80;54.60;;;;;;5057687;28;19951;-70
2021/05/31 14:47:57;;;;;;;;;;;19.80;55.70;;;;;;5040442;28;20376;-69
2021/05/31 14:50:24;;;;;;;;;;;20.00;54.80;;;;;;5056895;28;19929;-70
2021/05/31 14:52:52;;;;;;;;;;;20.00;53.50;;;;;;5057199;28;20335;-72
2021/05/31 14:55:20;;;;;;;;;;;20.10;53.30;;;;;;5056813;28;20012;-69
2021/05/31 14:57:50;;;;;;;;;;;20.10;52.10;;;;;;5038640;28;19925;-70
2021/05/31 15:00:20;;;;;;;;;;;20.20;52.80;;;;;;5038165;28;19925;-69
2021/05/31 15:02:51;;;;;;;;;;;20.10;52.90;;;;;;5057529;28;20034;-69
2021/05/31 15:05:19;;;;;;;;;;;20.10;52.70;;;;;;5058274;28;20032;-69
2021/05/31 15:07:50;;;;;;;;;;;20.00;52.90;;;;;;5058214;28;19979;-70